Time;durP1;ratioP1;P1;durP2;ratioP2;P2;SDS_P1;SDS_P2;PMS_P1;PMS_P2;Temp;Humidity;BMP_temperature;BMP_pressure;BME280_temperature;BME280_humidity;BME280_pressure;Samples;Min_cycle;Max_cycle;Signal;HPM_P1;HPM_P2
2022/06/19 00:00:37;;;;;;;16.73;9.50;;;28.60;32.50;;;;;;5109306;28;20409;-44
2022/06/19 00:03:06;;;;;;;8.30;6.67;;;28.50;32.70;;;;;;5109077;28;20436;-45
2022/06/19 00:05:32;;;;;;;9.10;6.50;;;28.60;32.90;;;;;;5108707;28;20426;-45
2022/06/19 00:07:58;;;;;;;13.20;4.90;;;28.50;33.10;;;;;;5109266;28;20416;-45
2022/06/19 00:10:24;;;;;;;5.20;4.40;;;28.40;32.80;;;;;;5108923;28;20906;-46
2022/06/19 00:12:50;;;;;;;8.33;5.10;;;28.40;33.20;;;;;;5108851;28;20171;-47
2022/06/19 00:15:16;;;;;;;8.03;4.67;;;28.40;33.60;;;;;;5108547;28;20207;-44
2022/06/19 00:17:43;;;;;;;5.50;3.80;;;28.30;33.60;;;;;;5108610;28;20181;-45
2022/06/19 00:20:10;;;;;;;12.30;5.87;;;27.10;33.20;;;;;;5108748;28;20822;-44
2022/06/19 00:22:37;;;;;;;10.27;4.37;;;28.30;33.60;;;;;;5108702;28;20405;-44
2022/06/19 00:25:04;;;;;;;14.83;8.60;;;28.20;33.60;;;;;;5108609;28;20932;-45
2022/06/19 00:27:31;;;;;;;9.50;4.03;;;28.20;33.60;;;;;;5096660;28;20492;-42
2022/06/19 00:29:58;;;;;;;8.80;5.37;;;28.10;33.70;;;;;;5095267;28;20432;-46
2022/06/19 00:32:25;;;;;;;31.37;9.57;;;28.00;33.90;;;;;;5094914;28;20409;-45
2022/06/19 00:34:51;;;;;;;16.20;4.30;;;28.00;34.10;;;;;;5094737;28;20487;-44
2022/06/19 00:37:17;;;;;;;12.73;5.30;;;27.90;33.80;;;;;;5094618;28;20572;-46
2022/06/19 00:39:43;;;;;;;20.50;6.20;;;27.90;33.80;;;;;;5095056;28;20429;-45
2022/06/19 00:42:14;;;;;;;9.73;5.40;;;27.80;34.20;;;;;;5094780;28;20179;-45
2022/06/19 00:44:41;;;;;;;40.33;7.30;;;27.80;34.30;;;;;;5094634;28;20200;-43
2022/06/19 00:47:18;;;;;;;6.60;4.57;;;27.70;34.90;;;;;;5094472;28;20414;-44
2022/06/19 00:49:51;;;;;;;5.70;4.10;;;27.60;34.70;;;;;;5094447;28;20429;-45
2022/06/19 00:52:22;;;;;;;7.57;4.20;;;27.50;34.90;;;;;;5094567;28;20904;-45
2022/06/19 00:54:56;;;;;;;7.17;4.40;;;27.40;35.00;;;;;;5094392;28;20457;-44
2022/06/19 00:57:23;;;;;;;5.80;4.80;;;27.40;35.30;;;;;;5094343;28;20429;-44
2022/06/19 00:59:59;;;;;;;12.40;4.60;;;27.30;35.70;;;;;;5094763;28;20441;-45
2022/06/19 01:02:26;;;;;;;4.63;4.23;;;27.30;35.60;;;;;;5094396;28;20398;-45
2022/06/19 01:04:54;;;;;;;5.47;4.07;;;27.20;35.80;;;;;;5094318;28;20514;-44
2022/06/19 01:07:26;;;;;;;6.80;4.10;;;27.20;35.80;;;;;;5094271;28;20497;-45
2022/06/19 01:09:52;;;;;;;5.03;4.10;;;27.10;35.90;;;;;;5094119;28;20471;-46
2022/06/19 01:12:19;;;;;;;6.03;3.80;;;27.00;35.80;;;;;;5094302;28;20469;-46
2022/06/19 01:14:46;;;;;;;8.33;4.20;;;27.00;36.00;;;;;;5093830;28;20469;-46
2022/06/19 01:17:15;;;;;;;11.37;4.07;;;26.90;35.60;;;;;;5094155;28;20410;-46
2022/06/19 01:19:43;;;;;;;7.03;4.17;;;26.90;35.70;;;;;;5094273;28;20452;-44
2022/06/19 01:22:11;;;;;;;7.80;4.40;;;26.90;35.90;;;;;;5094085;28;20988;-44
2022/06/19 01:24:41;;;;;;;8.10;5.17;;;26.80;36.10;;;;;;5094270;28;20432;-45
2022/06/19 01:28:45;;;;;;;4.00;3.33;;;26.80;36.30;;;;;;5093980;28;20417;-45
2022/06/19 01:29:58;;;;;;;4.23;3.27;;;26.70;36.40;;;;;;5093768;28;20821;-44
2022/06/19 01:32:24;;;;;;;6.23;4.60;;;26.70;36.40;;;;;;5094245;28;20433;-46
2022/06/19 01:34:52;;;;;;;5.23;3.93;;;26.70;36.40;;;;;;5093764;28;20821;-46
2022/06/19 01:37:24;;;;;;;5.80;3.67;;;26.60;36.60;;;;;;5093276;28;20493;-44
2022/06/19 01:40:05;;;;;;;9.17;3.57;;;26.50;36.50;;;;;;5093132;28;20397;-46
2022/06/19 01:42:31;;;;;;;9.37;4.17;;;26.50;36.40;;;;;;5093870;28;20410;-46
2022/06/19 01:44:58;;;;;;;8.50;4.33;;;26.50;36.60;;;;;;5093656;28;20872;-44
2022/06/19 01:47:25;;;;;;;8.80;4.60;;;26.40;36.90;;;;;;5093238;28;20493;-46
2022/06/19 01:49:54;;;;;;;5.70;4.17;;;26.40;36.80;;;;;;5093466;28;20417;-45
2022/06/19 01:52:23;;;;;;;8.50;5.03;;;26.30;37.10;;;;;;5093622;28;20417;-46
2022/06/19 01:55:08;;;;;;;9.43;4.00;;;26.20;37.20;;;;;;5093279;28;20461;-46
2022/06/19 01:57:39;;;;;;;11.27;3.87;;;26.20;37.50;;;;;;5093314;28;20410;-46
2022/06/19 02:00:08;;;;;;;5.00;3.90;;;26.20;37.40;;;;;;5093373;28;20413;-45
2022/06/19 02:02:35;;;;;;;7.87;4.70;;;26.10;37.40;;;;;;5093184;28;20402;-45
2022/06/19 02:05:01;;;;;;;4.60;3.90;;;26.10;37.60;;;;;;5093409;28;20433;-46
2022/06/19 02:07:28;;;;;;;8.40;5.03;;;26.00;37.90;;;;;;5093222;28;20437;-46
2022/06/19 02:09:55;;;;;;;6.23;3.97;;;26.00;37.90;;;;;;5093231;28;20420;-45
2022/06/19 02:12:23;;;;;;;5.63;3.63;;;25.90;37.80;;;;;;5093081;28;20425;-46
2022/06/19 02:14:50;;;;;;;8.97;4.80;;;25.80;37.80;;;;;;5092926;28;20552;-44
2022/06/19 02:17:21;;;;;;;8.10;3.90;;;25.80;37.80;;;;;;5092738;28;20398;-45
2022/06/19 02:19:47;;;;;;;5.23;3.90;;;25.80;37.80;;;;;;5093275;28;20394;-46
2022/06/19 02:22:15;;;;;;;7.70;4.37;;;25.80;37.80;;;;;;5093456;28;20407;-45
2022/06/19 02:24:42;;;;;;;6.63;4.43;;;25.70;37.90;;;;;;5092847;28;20257;-45
2022/06/19 02:27:09;;;;;;;10.80;4.10;;;25.70;38.00;;;;;;5091307;28;20957;-46
2022/06/19 02:29:38;;;;;;;5.60;4.03;;;25.60;38.00;;;;;;5092774;28;20402;-45
2022/06/19 02:32:05;;;;;;;8.53;4.27;;;25.60;38.00;;;;;;5093013;28;20406;-44
2022/06/19 02:34:40;;;;;;;8.40;4.50;;;25.60;38.10;;;;;;5092569;28;20817;-46
2022/06/19 02:37:22;;;;;;;4.90;4.00;;;25.60;38.30;;;;;;5092728;28;20465;-46
2022/06/19 02:40:09;;;;;;;7.80;4.57;;;25.50;38.30;;;;;;5092918;28;20766;-46
2022/06/19 02:42:44;;;;;;;8.60;5.10;;;25.50;38.40;;;;;;5093073;28;20493;-44
2022/06/19 02:45:16;;;;;;;6.33;4.20;;;25.40;38.50;;;;;;5092434;28;20421;-45
2022/06/19 02:47:43;;;;;;;7.90;4.40;;;25.40;38.40;;;;;;5092361;28;20382;-43
2022/06/19 02:50:12;;;;;;;6.80;4.90;;;25.30;38.50;;;;;;5092189;28;20413;-46
2022/06/19 02:52:38;;;;;;;5.63;4.30;;;25.30;38.30;;;;;;5091171;28;20402;-44
2022/06/19 02:55:05;;;;;;;5.93;4.33;;;25.30;38.40;;;;;;5092219;28;20544;-45
2022/06/19 02:57:31;;;;;;;12.77;4.67;;;25.30;38.80;;;;;;5092158;28;20176;-45
2022/06/19 02:59:57;;;;;;;6.30;3.97;;;25.20;38.60;;;;;;5092426;28;20409;-44
2022/06/19 03:02:23;;;;;;;12.67;5.87;;;25.20;38.70;;;;;;5092320;28;20170;-45
2022/06/19 03:04:57;;;;;;;5.57;4.47;;;25.20;38.80;;;;;;5092192;28;20187;-44
2022/06/19 03:07:24;;;;;;;5.53;3.40;;;25.10;39.10;;;;;;5092088;28;20896;-45
2022/06/19 03:09:49;;;;;;;5.13;3.33;;;25.10;39.10;;;;;;5092213;28;20410;-45
2022/06/19 03:12:15;;;;;;;8.60;4.83;;;25.10;39.00;;;;;;5092241;28;20501;-44
2022/06/19 03:14:41;;;;;;;8.20;4.60;;;25.10;39.10;;;;;;5091873;28;20222;-43
2022/06/19 03:17:10;;;;;;;7.30;4.03;;;25.10;39.00;;;;;;5091914;28;20176;-43
2022/06/19 03:19:36;;;;;;;6.87;4.17;;;25.00;39.20;;;;;;5092128;28;20489;-44
2022/06/19 03:22:02;;;;;;;6.93;4.23;;;25.00;39.20;;;;;;5092398;28;20936;-44
2022/06/19 03:24:28;;;;;;;7.40;4.03;;;25.00;39.20;;;;;;5092058;28;20195;-44
2022/06/19 03:26:53;;;;;;;6.83;4.77;;;25.00;39.10;;;;;;5092179;28;20493;-43
2022/06/19 03:29:19;;;;;;;10.67;4.47;;;25.00;39.50;;;;;;5092344;28;20183;-44
2022/06/19 03:31:45;;;;;;;7.37;4.70;;;25.00;39.30;;;;;;5092302;28;20225;-45
2022/06/19 03:34:11;;;;;;;6.47;3.53;;;25.00;39.40;;;;;;5091789;28;20810;-45
2022/06/19 03:36:37;;;;;;;7.33;4.80;;;25.00;39.40;;;;;;5092094;28;20198;-44
2022/06/19 03:39:02;;;;;;;4.03;3.63;;;25.00;39.10;;;;;;5092257;28;20632;-44
2022/06/19 03:41:28;;;;;;;6.43;3.20;;;25.10;39.10;;;;;;5091971;28;20171;-44
2022/06/19 03:43:54;;;;;;;6.63;4.03;;;25.10;39.00;;;;;;5091821;28;20551;-45
2022/06/19 03:46:20;;;;;;;6.63;3.67;;;25.10;39.00;;;;;;5092056;28;20765;-44
2022/06/19 03:48:48;;;;;;;9.77;4.97;;;25.20;38.90;;;;;;5091846;28;20667;-45
2022/06/19 03:51:18;;;;;;;6.83;4.23;;;25.20;39.10;;;;;;5091943;28;20171;-45
2022/06/19 03:53:45;;;;;;;4.73;4.33;;;25.20;39.00;;;;;;5091901;28;20413;-45
2022/06/19 03:56:17;;;;;;;10.83;4.37;;;25.20;39.20;;;;;;5091581;28;20453;-45
2022/06/19 03:58:46;;;;;;;4.97;3.03;;;25.30;38.90;;;;;;5091809;28;20424;-44
2022/06/19 04:01:20;;;;;;;5.00;4.40;;;25.40;38.70;;;;;;5092469;28;20788;-44
2022/06/19 04:03:47;;;;;;;3.10;2.90;;;25.40;38.60;;;;;;5095818;28;20401;-44
2022/06/19 04:06:15;;;;;;;10.03;3.57;;;25.50;38.40;;;;;;5095300;28;20418;-44
2022/06/19 04:08:44;;;;;;;5.60;3.60;;;25.50;38.00;;;;;;5095531;28;20904;-42
2022/06/19 04:11:10;;;;;;;3.77;2.73;;;25.70;37.70;;;;;;5095484;28;20421;-44
2022/06/19 04:13:37;;;;;;;5.00;2.83;;;25.80;37.70;;;;;;5095605;28;20397;-45
2022/06/19 04:16:04;;;;;;;6.13;4.10;;;25.90;37.40;;;;;;5094868;28;20556;-43
2022/06/19 04:18:31;;;;;;;8.73;3.47;;;26.00;37.70;;;;;;5095376;28;20928;-43
2022/06/19 04:20:58;;;;;;;12.80;3.77;;;26.00;37.70;;;;;;5095221;28;20492;-44
2022/06/19 04:23:26;;;;;;;4.47;3.60;;;26.20;37.40;;;;;;5095186;28;20442;-45
2022/06/19 04:25:52;;;;;;;3.03;2.60;;;26.20;37.20;;;;;;5094925;28;20426;-43
2022/06/19 04:28:22;;;;;;;5.27;3.20;;;26.40;37.10;;;;;;5094965;28;20406;-45
2022/06/19 04:30:49;;;;;;;3.50;2.77;;;26.40;37.10;;;;;;5095123;28;20416;-46
2022/06/19 04:33:16;;;;;;;13.90;4.20;;;26.50;37.00;;;;;;5095267;28;20405;-44
2022/06/19 04:35:43;;;;;;;4.60;3.20;;;26.70;36.70;;;;;;5094525;28;20469;-46
2022/06/19 04:38:09;;;;;;;3.43;2.87;;;26.70;36.40;;;;;;5094876;28;20407;-43
2022/06/19 04:40:36;;;;;;;4.90;2.90;;;26.80;36.20;;;;;;5095422;28;20493;-45
2022/06/19 04:43:03;;;;;;;8.97;3.40;;;26.90;36.30;;;;;;5094963;28;20492;-46
2022/06/19 04:45:29;;;;;;;8.10;3.40;;;26.90;36.20;;;;;;5094669;28;20949;-43
2022/06/19 04:47:56;;;;;;;10.93;3.83;;;27.00;36.50;;;;;;5094561;28;20837;-46
2022/06/19 04:50:22;;;;;;;6.70;3.90;;;27.00;36.30;;;;;;5094815;28;20408;-45
2022/06/19 04:52:48;;;;;;;7.40;3.13;;;27.20;36.20;;;;;;5094782;28;20485;-45
2022/06/19 04:55:15;;;;;;;7.10;3.17;;;27.20;35.90;;;;;;5094435;28;20457;-46
2022/06/19 04:57:41;;;;;;;6.37;3.43;;;27.30;35.80;;;;;;5094267;28;20816;-46
2022/06/19 05:00:11;;;;;;;3.40;2.73;;;27.40;35.70;;;;;;5094513;28;20414;-46
2022/06/19 05:02:38;;;;;;;6.73;3.00;;;27.50;35.20;;;;;;5094500;28;20410;-46
2022/06/19 05:05:05;;;;;;;4.10;3.27;;;27.50;35.00;;;;;;5094410;28;20450;-44
2022/06/19 05:07:33;;;;;;;4.70;3.07;;;27.60;35.00;;;;;;5094208;28;20543;-43
2022/06/19 05:09:58;;;;;;;3.63;2.40;;;27.60;34.80;;;;;;5094520;28;20757;-46
2022/06/19 05:12:25;;;;;;;4.20;3.80;;;27.70;34.50;;;;;;5094460;28;20398;-45
2022/06/19 05:14:50;;;;;;;8.93;3.40;;;27.80;34.80;;;;;;5093926;28;20310;-45
2022/06/19 05:17:16;;;;;;;7.10;3.30;;;27.80;34.90;;;;;;5094036;28;20540;-44
2022/06/19 05:19:42;;;;;;;6.30;3.30;;;27.90;34.90;;;;;;5094242;28;20176;-44
2022/06/19 05:22:08;;;;;;;4.00;2.83;;;28.00;35.20;;;;;;5094396;28;20176;-44
2022/06/19 05:24:35;;;;;;;7.60;4.20;;;28.00;35.30;;;;;;5093934;28;20832;-43
2022/06/19 05:27:11;;;;;;;7.50;4.20;;;28.10;35.10;;;;;;5093993;28;20493;-45
2022/06/19 05:29:38;;;;;;;5.53;3.63;;;28.20;35.20;;;;;;5094210;28;20409;-47
2022/06/19 05:32:04;;;;;;;9.43;3.73;;;28.20;35.00;;;;;;5093891;28;20848;-44
2022/06/19 05:34:35;;;;;;;6.87;4.53;;;28.30;35.10;;;;;;5093703;28;20481;-45
2022/06/19 05:37:01;;;;;;;5.93;4.10;;;28.30;35.20;;;;;;5093778;28;20471;-44
2022/06/19 05:39:27;;;;;;;4.63;4.00;;;28.40;35.00;;;;;;5093624;28;20885;-45
2022/06/19 05:41:57;;;;;;;10.83;5.93;;;28.40;35.20;;;;;;5093722;28;20455;-44
2022/06/19 05:44:24;;;;;;;7.10;3.40;;;28.50;34.80;;;;;;5093619;28;20422;-44
2022/06/19 05:46:50;;;;;;;4.33;3.63;;;28.60;35.00;;;;;;5093458;28;20402;-45
2022/06/19 05:49:16;;;;;;;7.20;4.60;;;28.60;34.90;;;;;;5093618;28;20402;-45
2022/06/19 05:51:43;;;;;;;5.67;4.43;;;28.60;34.50;;;;;;5093494;28;20398;-45
2022/06/19 05:54:09;;;;;;;3.63;3.07;;;28.60;34.40;;;;;;5093692;28;20425;-46
2022/06/19 05:56:35;;;;;;;4.43;3.90;;;28.70;34.60;;;;;;5093120;28;20981;-45
2022/06/19 05:59:01;;;;;;;7.63;3.63;;;28.80;34.90;;;;;;5093390;28;20394;-44
2022/06/19 06:01:28;;;;;;;5.33;3.53;;;28.80;34.30;;;;;;5093588;28;20402;-43
2022/06/19 06:03:55;;;;;;;4.53;4.00;;;28.90;33.90;;;;;;5093490;28;20417;-46
2022/06/19 06:06:26;;;;;;;5.40;4.33;;;29.00;34.30;;;;;;5092983;28;20410;-45
2022/06/19 06:08:53;;;;;;;3.93;3.30;;;29.10;33.90;;;;;;5093344;28;20395;-45
2022/06/19 06:11:19;;;;;;;4.27;3.60;;;29.20;33.60;;;;;;5093230;28;20402;-44
2022/06/19 06:13:45;;;;;;;4.57;3.70;;;29.30;33.50;;;;;;5093065;28;20446;-44
2022/06/19 06:16:17;;;;;;;4.80;3.57;;;29.30;33.60;;;;;;5092688;28;20538;-44
2022/06/19 06:18:43;;;;;;;4.70;4.00;;;29.50;33.20;;;;;;5092941;28;20406;-44
2022/06/19 06:21:17;;;;;;;5.33;3.40;;;29.60;33.10;;;;;;5093201;28;20411;-45
2022/06/19 06:23:43;;;;;;;4.63;3.80;;;29.70;32.70;;;;;;5092816;28;20514;-45
2022/06/19 06:26:15;;;;;;;3.53;3.20;;;29.80;32.80;;;;;;5092821;28;20428;-44
2022/06/19 06:28:42;;;;;;;3.63;3.33;;;29.90;32.70;;;;;;5092915;28;20402;-46
2022/06/19 06:31:08;;;;;;;5.13;2.90;;;30.00;32.60;;;;;;5092739;28;20409;-44
2022/06/19 06:33:34;;;;;;;5.13;3.50;;;30.00;32.30;;;;;;5093010;28;20418;-43
2022/06/19 06:36:00;;;;;;;7.33;4.30;;;30.10;32.40;;;;;;5092440;28;20203;-43
2022/06/19 06:38:26;;;;;;;4.53;3.37;;;30.20;32.10;;;;;;5092809;28;20429;-43
2022/06/19 06:40:53;;;;;;;6.80;4.23;;;30.20;32.60;;;;;;5092674;28;20409;-43
2022/06/19 06:43:20;;;;;;;3.90;3.17;;;30.30;32.30;;;;;;5092948;28;20406;-45
2022/06/19 06:45:48;;;;;;;4.97;3.43;;;30.50;32.60;;;;;;5092498;28;20992;-44
2022/06/19 06:48:14;;;;;;;6.33;4.17;;;30.60;32.30;;;;;;5092788;28;20421;-45
2022/06/19 06:50:41;;;;;;;5.50;3.03;;;30.70;31.90;;;;;;5092632;28;20902;-45
2022/06/19 06:53:08;;;;;;;4.83;3.27;;;30.80;31.70;;;;;;5092764;28;20417;-45
2022/06/19 06:55:41;;;;;;;8.13;3.80;;;30.90;31.90;;;;;;5092177;28;20446;-44
2022/06/19 06:58:08;;;;;;;3.60;2.87;;;31.00;32.20;;;;;;5092410;28;20394;-46
2022/06/19 07:00:34;;;;;;;5.33;3.53;;;31.10;31.80;;;;;;5092344;28;20492;-44
2022/06/19 07:03:00;;;;;;;4.03;3.30;;;31.10;30.80;;;;;;5092303;28;20535;-45
2022/06/19 07:05:26;;;;;;;7.67;3.40;;;31.20;30.70;;;;;;5092595;28;20456;-46
2022/06/19 07:07:52;;;;;;;6.27;3.73;;;31.30;31.20;;;;;;5091973;28;20674;-44
2022/06/19 07:10:19;;;;;;;3.83;2.63;;;31.40;31.30;;;;;;5092153;28;20503;-46
2022/06/19 07:12:45;;;;;;;12.40;4.00;;;31.50;30.20;;;;;;5092220;28;20413;-46
2022/06/19 07:15:12;;;;;;;3.80;2.60;;;31.60;30.60;;;;;;5091853;28;20468;-44
2022/06/19 07:17:39;;;;;;;6.07;2.93;;;31.70;30.40;;;;;;5091912;28;20406;-45
2022/06/19 07:20:06;;;;;;;4.27;3.17;;;31.80;30.00;;;;;;5092121;28;20912;-45
2022/06/19 07:22:32;;;;;;;5.50;3.47;;;31.90;29.60;;;;;;5092367;28;20405;-46
2022/06/19 07:24:57;;;;;;;3.50;3.20;;;32.10;29.90;;;;;;5091908;28;20774;-44
2022/06/19 07:27:23;;;;;;;6.00;2.80;;;32.20;29.20;;;;;;5091888;28;20167;-46
2022/06/19 07:29:50;;;;;;;3.37;2.60;;;32.20;28.80;;;;;;5092337;28;20179;-44
2022/06/19 07:32:16;;;;;;;3.90;2.57;;;32.30;28.10;;;;;;5092288;28;20440;-43
2022/06/19 07:34:42;;;;;;;3.63;2.93;;;32.50;28.90;;;;;;5091986;28;20550;-43
2022/06/19 07:37:13;;;;;;;3.57;2.67;;;32.70;29.10;;;;;;5094207;28;20406;-46
2022/06/19 07:39:39;;;;;;;5.07;2.90;;;32.90;28.60;;;;;;5096104;28;20414;-47
2022/06/19 07:42:08;;;;;;;4.73;2.80;;;33.00;28.10;;;;;;5096136;28;20402;-44
2022/06/19 07:44:35;;;;;;;4.63;2.10;;;33.20;27.50;;;;;;5096274;28;20614;-44
2022/06/19 07:52:31;;;;;;;4.70;2.60;;;33.80;26.10;;;;;;5096035;28;20424;-45
2022/06/19 07:54:57;;;;;;;6.17;2.30;;;34.10;25.20;;;;;;5095565;28;20457;-45
2022/06/19 07:57:23;;;;;;;4.47;2.40;;;34.30;25.00;;;;;;5095682;28;20174;-44
2022/06/19 07:59:49;;;;;;;5.83;2.50;;;34.50;25.00;;;;;;5096004;28;20168;-47
2022/06/19 08:02:15;;;;;;;4.03;2.20;;;34.70;25.10;;;;;;5095675;28;20504;-47
2022/06/19 08:04:40;;;;;;;4.93;2.07;;;34.90;23.00;;;;;;5095447;28;20199;-48
2022/06/19 08:07:06;;;;;;;2.90;2.20;;;35.00;21.30;;;;;;5095465;28;20420;-44
2022/06/19 08:09:32;;;;;;;4.30;1.70;;;35.10;21.00;;;;;;5095514;28;20539;-44
2022/06/19 08:11:58;;;;;;;7.40;3.40;;;35.20;21.10;;;;;;5095645;28;20245;-45
2022/06/19 08:14:23;;;;;;;5.50;1.90;;;35.30;19.80;;;;;;5095369;28;20692;-45
2022/06/19 08:16:49;;;;;;;11.33;2.87;;;35.30;19.60;;;;;;5093909;28;20634;-44
2022/06/19 08:19:15;;;;;;;10.57;2.30;;;35.40;19.90;;;;;;5095318;28;20164;-47
2022/06/19 08:21:40;;;;;;;4.27;2.37;;;35.50;19.30;;;;;;5095140;28;20175;-44
2022/06/19 08:24:06;;;;;;;4.70;2.07;;;35.50;18.90;;;;;;5095189;28;20267;-44
2022/06/19 08:26:32;;;;;;;3.00;2.20;;;35.60;18.70;;;;;;5094964;28;20170;-45
2022/06/19 08:29:01;;;;;;;8.43;2.87;;;35.70;18.80;;;;;;5095188;28;20417;-44
2022/06/19 08:31:28;;;;;;;5.97;3.00;;;35.60;18.70;;;;;;5095054;28;20672;-46
2022/06/19 08:33:54;;;;;;;4.60;1.93;;;35.70;18.40;;;;;;5094976;28;20416;-46
2022/06/19 08:36:21;;;;;;;5.00;3.00;;;35.70;18.90;;;;;;5094587;28;20445;-46
2022/06/19 08:38:51;;;;;;;6.70;2.17;;;35.70;18.10;;;;;;5094771;28;20406;-44
2022/06/19 08:41:34;;;;;;;5.63;2.97;;;35.70;18.70;;;;;;5095189;28;20382;-44
2022/06/19 08:44:39;;;;;;;3.53;2.50;;;35.80;18.80;;;;;;5095107;28;20393;-46
2022/06/19 08:47:16;;;;;;;4.60;2.40;;;35.90;18.20;;;;;;5094363;28;20402;-44
2022/06/19 08:49:54;;;;;;;7.90;2.60;;;35.90;18.60;;;;;;5094701;28;20533;-45
2022/06/19 08:52:51;;;;;;;5.37;2.00;;;36.10;18.70;;;;;;5094731;28;20398;-44
2022/06/19 08:55:41;;;;;;;3.20;1.90;;;36.10;18.70;;;;;;5094482;28;20958;-45
2022/06/19 08:58:19;;;;;;;6.47;2.63;;;36.10;18.90;;;;;;5094727;28;20406;-44
2022/06/19 09:01:04;;;;;;;4.97;2.90;;;36.00;19.20;;;;;;5094620;28;20424;-45
2022/06/19 09:06:44;;;;;;;3.53;2.33;;;36.30;18.30;;;;;;5094230;28;20440;-45
2022/06/19 09:09:40;;;;;;;3.30;2.10;;;36.20;18.70;;;;;;5094393;28;20474;-44
2022/06/19 09:12:35;;;;;;;6.60;2.90;;;36.30;19.50;;;;;;5094252;28;20398;-44
2022/06/19 09:15:32;;;;;;;4.03;2.50;;;36.50;18.70;;;;;;5096120;22;20875;-44
2022/06/19 09:18:12;;;;;;;5.83;4.80;;;36.50;19.20;;;;;;5068949;28;20403;-44
2022/06/19 09:20:59;;;;;;;5.03;2.53;;;36.40;18.60;;;;;;5073922;28;20387;-44
2022/06/19 09:24:00;;;;;;;8.03;2.60;;;36.50;19.20;;;;;;5073866;28;20460;-45
2022/06/19 09:26:46;;;;;;;5.27;2.93;;;36.50;18.60;;;;;;5053733;28;20479;-45
2022/06/19 09:29:22;;;;;;;5.30;2.47;;;36.50;18.90;;;;;;5053914;28;20424;-45
2022/06/19 09:32:17;;;;;;;7.70;2.67;;;36.50;19.00;;;;;;5053980;28;20946;-45
2022/06/19 09:34:57;;;;;;;4.20;2.80;;;36.60;19.20;;;;;;5035035;28;20796;-46
2022/06/19 09:37:44;;;;;;;3.87;2.67;;;36.70;18.80;;;;;;5053475;28;20884;-45
2022/06/19 09:40:47;;;;;;;5.60;3.27;;;36.70;19.50;;;;;;5053667;28;20388;-44
2022/06/19 09:43:24;;;;;;;2.93;2.23;;;36.90;20.30;;;;;;5011530;28;20820;-44
2022/06/19 09:46:12;;;;;;;7.10;2.97;;;37.10;20.70;;;;;;5011234;28;20443;-45
2022/06/19 09:48:56;;;;;;;6.83;3.47;;;37.30;20.60;;;;;;5011626;28;20452;-45
2022/06/19 09:51:50;;;;;;;6.60;3.30;;;37.40;19.30;;;;;;5011276;28;20405;-44
2022/06/19 09:54:42;;;;;;;4.10;2.40;;;37.40;19.80;;;;;;5011236;28;20484;-46
2022/06/19 09:57:21;;;;;;;3.33;2.00;;;37.40;19.60;;;;;;5011068;28;20414;-46
2022/06/19 10:00:07;;;;;;;6.90;2.80;;;37.50;19.30;;;;;;5010406;28;20385;-47
2022/06/19 10:02:38;;;;;;;8.07;2.83;;;37.60;19.20;;;;;;5011171;28;20899;-47
2022/06/19 10:05:12;;;;;;;6.40;2.50;;;37.70;19.70;;;;;;5011080;28;20782;-46
2022/06/19 10:07:44;;;;;;;6.43;2.53;;;37.80;19.40;;;;;;5011169;28;20789;-47
2022/06/19 10:10:39;;;;;;;3.57;2.63;;;37.90;18.80;;;;;;5010595;28;20418;-47
2022/06/19 10:13:25;;;;;;;5.80;2.80;;;37.90;19.00;;;;;;5011234;28;20789;-45
2022/06/19 10:15:54;;;;;;;6.43;2.63;;;37.90;18.60;;;;;;4993702;28;20560;-47
2022/06/19 10:18:26;;;;;;;7.43;2.50;;;37.90;18.70;;;;;;5051906;28;20411;-47
2022/06/19 10:21:02;;;;;;;6.60;2.80;;;38.00;19.00;;;;;;5052983;28;20479;-47
2022/06/19 10:24:06;;;;;;;4.20;2.60;;;38.10;18.50;;;;;;5052774;28;20419;-47
2022/06/19 10:26:44;;;;;;;5.73;2.00;;;38.10;18.70;;;;;;5052464;28;20461;-46
2022/06/19 10:29:19;;;;;;;4.57;3.27;;;38.20;19.50;;;;;;5052650;28;20399;-47
2022/06/19 10:31:57;;;;;;;3.57;2.50;;;38.30;18.90;;;;;;5052792;28;20407;-46
2022/06/19 10:34:30;;;;;;;9.87;2.93;;;38.30;18.20;;;;;;5052436;28;20447;-47
2022/06/19 10:37:19;;;;;;;5.07;2.40;;;38.30;18.20;;;;;;5052205;28;20410;-46
2022/06/19 10:39:54;;;;;;;7.40;4.50;;;38.30;18.20;;;;;;5046966;28;20420;-47
2022/06/19 10:43:05;;;;;;;6.57;2.93;;;38.40;18.00;;;;;;5052366;28;20414;-48
2022/06/19 10:45:54;;;;;;;5.30;2.20;;;38.30;18.20;;;;;;5052066;28;20996;-45
2022/06/19 10:48:28;;;;;;;3.80;2.40;;;38.40;17.90;;;;;;5052304;28;20404;-43
2022/06/19 10:51:02;;;;;;;4.10;2.23;;;38.40;18.10;;;;;;5052301;28;20407;-44
2022/06/19 10:53:59;;;;;;;7.53;2.47;;;38.50;18.10;;;;;;5052262;28;20439;-46
2022/06/19 10:56:39;;;;;;;3.83;2.67;;;38.60;18.20;;;;;;5052063;28;20455;-45
2022/06/19 10:59:07;;;;;;;3.83;2.40;;;38.80;18.30;;;;;;5052197;28;20460;-45
2022/06/19 11:04:39;;;;;;;4.53;2.70;;;38.90;17.40;;;;;;5052311;28;20965;-44
2022/06/19 11:07:09;;;;;;;11.87;2.37;;;38.80;17.60;;;;;;5051920;28;20482;-46
2022/06/19 11:09:43;;;;;;;5.30;2.30;;;39.00;16.50;;;;;;5052122;28;20763;-45
2022/06/19 11:12:34;;;;;;;8.43;2.60;;;39.00;16.50;;;;;;5051917;28;20418;-44
2022/06/19 11:15:05;;;;;;;5.70;2.00;;;39.00;16.20;;;;;;5051725;28;20491;-44
2022/06/19 11:17:38;;;;;;;10.60;3.10;;;39.00;15.80;;;;;;5051913;28;20404;-45
2022/06/19 11:20:25;;;;;;;2.33;1.60;;;39.20;15.80;;;;;;5052029;28;20427;-44
2022/06/19 11:23:00;;;;;;;10.03;2.70;;;39.30;16.00;;;;;;5051771;28;20510;-44
2022/06/19 11:25:35;;;;;;;3.63;2.33;;;39.40;16.00;;;;;;5051811;28;20468;-44
2022/06/19 11:28:01;;;;;;;13.73;3.30;;;39.50;15.50;;;;;;5052162;28;20475;-45
2022/06/19 11:30:33;;;;;;;8.33;2.07;;;39.50;15.50;;;;;;5052131;28;20516;-45
2022/06/19 11:33:00;;;;;;;5.13;1.90;;;39.60;15.50;;;;;;5051813;28;20174;-45
2022/06/19 11:35:38;;;;;;;8.20;2.10;;;39.60;15.90;;;;;;5051618;28;20483;-45
2022/06/19 11:38:04;;;;;;;4.20;2.13;;;39.80;15.40;;;;;;5052098;28;20416;-45
2022/06/19 11:40:38;;;;;;;5.60;2.60;;;39.80;15.70;;;;;;5051801;28;20759;-44
2022/06/19 11:43:09;;;;;;;4.63;2.57;;;39.80;16.00;;;;;;5051763;28;20483;-45
2022/06/19 11:45:36;;;;;;;4.33;1.87;;;40.00;16.00;;;;;;5051473;28;20565;-46
2022/06/19 11:48:07;;;;;;;4.40;2.50;;;40.20;16.30;;;;;;5051392;28;20408;-44
2022/06/19 11:50:33;;;;;;;8.27;2.23;;;40.30;16.00;;;;;;5051431;28;20443;-45
2022/06/19 11:53:10;;;;;;;7.83;2.97;;;40.50;15.40;;;;;;5051601;28;20447;-45
2022/06/19 11:55:42;;;;;;;4.43;2.47;;;40.40;15.10;;;;;;5051273;28;20280;-45
2022/06/19 11:58:19;;;;;;;6.53;2.10;;;40.40;14.90;;;;;;5051649;28;20768;-45
2022/06/19 12:00:52;;;;;;;4.57;2.37;;;40.30;14.90;;;;;;5050383;28;20403;-45
2022/06/19 12:03:44;;;;;;;7.40;2.37;;;40.30;15.40;;;;;;5051491;28;20447;-45
2022/06/19 12:06:11;;;;;;;5.40;1.97;;;40.30;15.10;;;;;;5046347;28;20928;-45
2022/06/19 12:08:45;;;;;;;4.97;2.20;;;40.20;14.90;;;;;;5051420;28;20907;-45
2022/06/19 12:11:11;;;;;;;4.07;2.03;;;40.20;15.00;;;;;;5051443;28;20404;-43
2022/06/19 12:13:41;;;;;;;5.50;2.00;;;40.30;16.00;;;;;;5051475;28;20443;-45
2022/06/19 12:16:23;;;;;;;4.57;2.10;;;40.50;16.20;;;;;;5049808;28;20541;-45
2022/06/19 12:18:49;;;;;;;4.20;2.47;;;40.80;14.30;;;;;;5051383;28;20395;-44
2022/06/19 12:21:29;;;;;;;3.20;1.83;;;40.80;14.70;;;;;;5051256;28;20842;-45
2022/06/19 12:24:07;;;;;;;6.43;3.37;;;40.90;14.60;;;;;;5054380;28;20193;-44
2022/06/19 12:26:44;;;;;;;6.33;3.00;;;40.90;14.90;;;;;;5054808;28;20483;-43
2022/06/19 12:29:27;;;;;;;6.20;2.07;;;40.90;15.00;;;;;;5054899;28;20895;-44
2022/06/19 12:32:02;;;;;;;4.60;2.10;;;41.00;14.60;;;;;;5054830;28;20502;-45
2022/06/19 12:34:39;;;;;;;6.17;2.33;;;41.00;15.00;;;;;;5054636;28;20522;-45
2022/06/19 12:37:23;;;;;;;5.23;1.97;;;41.00;15.10;;;;;;5054542;28;20463;-44
2022/06/19 12:39:50;;;;;;;6.90;2.50;;;41.00;15.10;;;;;;5054270;28;20380;-44
2022/06/19 12:42:32;;;;;;;6.87;2.80;;;41.10;15.10;;;;;;5054616;28;20921;-44
2022/06/19 12:45:09;;;;;;;3.17;1.87;;;41.30;14.80;;;;;;5054695;28;20527;-44
2022/06/19 12:47:52;;;;;;;5.70;2.07;;;41.30;14.90;;;;;;5054348;28;20434;-46
2022/06/19 12:50:28;;;;;;;7.67;2.60;;;41.40;15.00;;;;;;5054514;28;20404;-44
2022/06/19 12:53:16;;;;;;;5.20;2.10;;;41.40;14.50;;;;;;5054482;28;20400;-45
2022/06/19 12:55:47;;;;;;;5.43;2.43;;;41.40;15.10;;;;;;5054013;28;20560;-44
2022/06/19 12:58:38;;;;;;;5.30;2.13;;;41.40;15.00;;;;;;5054428;28;20442;-44
2022/06/19 13:01:59;;;;;;;5.40;2.17;;;41.40;15.40;;;;;;5054600;28;20533;-45
2022/06/19 13:04:59;;;;;;;7.53;3.33;;;41.50;14.50;;;;;;5012151;28;20469;-45
2022/06/19 13:07:40;;;;;;;5.23;1.97;;;41.60;14.50;;;;;;5053993;28;20474;-46
2022/06/19 13:10:36;;;;;;;5.10;3.10;;;41.50;14.10;;;;;;5054299;28;20395;-45
2022/06/19 13:13:47;;;;;;;3.03;2.30;;;41.60;15.30;;;;;;5054085;28;20403;-45
2022/06/19 13:16:26;;;;;;;6.20;2.30;;;41.80;14.80;;;;;;5053762;28;20620;-44
2022/06/19 13:18:59;;;;;;;7.67;2.23;;;41.80;14.30;;;;;;5054014;28;20487;-45
2022/06/19 13:21:49;;;;;;;5.30;1.77;;;41.80;14.70;;;;;;5053906;28;20471;-44